Time;durP1;ratioP1;P1;durP2;ratioP2;P2;SDS_P1;SDS_P2;PMS_P1;PMS_P2;Temp;Humidity;BMP_temperature;BMP_pressure;BME280_temperature;BME280_humidity;BME280_pressure;Samples;Min_cycle;Max_cycle;Signal;HPM_P1;HPM_P2
2022/06/11 00:01:03;;;;;;;8.40;4.67;;;18.10;99.90;;;;;;5062349;28;20207;-53
2022/06/11 00:03:30;;;;;;;10.20;5.37;;;18.00;99.90;;;;;;5074580;28;22564;-53
2022/06/11 00:05:57;;;;;;;6.63;4.97;;;18.10;99.90;;;;;;5083651;28;20533;-53
2022/06/11 00:08:24;;;;;;;9.00;5.20;;;18.00;99.90;;;;;;5076839;28;20562;-53
2022/06/11 00:10:50;;;;;;;5.93;4.83;;;18.00;99.90;;;;;;5079024;28;20208;-54
2022/06/11 00:13:22;;;;;;;7.80;4.67;;;17.80;99.90;;;;;;5076171;28;20651;-52
2022/06/11 00:15:54;;;;;;;5.57;4.23;;;17.60;99.90;;;;;;5082222;28;20556;-53
2022/06/11 00:18:22;;;;;;;7.60;4.47;;;17.70;99.90;;;;;;5080446;28;20244;-52
2022/06/11 00:20:49;;;;;;;6.27;4.40;;;17.80;99.90;;;;;;5083947;28;20631;-53
2022/06/11 00:23:16;;;;;;;8.77;4.50;;;17.70;99.90;;;;;;5078542;28;20761;-52
2022/06/11 00:25:43;;;;;;;5.17;4.10;;;17.60;99.90;;;;;;5076658;28;20203;-53
2022/06/11 00:28:10;;;;;;;6.20;4.27;;;17.50;99.90;;;;;;5084843;28;20289;-53
2022/06/11 00:30:37;;;;;;;5.27;4.10;;;17.60;99.90;;;;;;5090063;28;20729;-53
2022/06/11 00:33:06;;;;;;;5.27;3.97;;;17.60;99.90;;;;;;5079984;28;20191;-52
2022/06/11 00:35:37;;;;;;;5.93;4.03;;;17.60;99.90;;;;;;5084927;28;20199;-52
2022/06/11 00:38:04;;;;;;;6.37;4.20;;;17.50;99.90;;;;;;5079830;28;20240;-53
2022/06/11 00:40:34;;;;;;;4.37;3.40;;;17.60;99.90;;;;;;5087742;28;20241;-52
2022/06/11 00:43:04;;;;;;;6.67;3.80;;;17.60;99.90;;;;;;5080385;28;20261;-53
2022/06/11 00:45:44;;;;;;;4.93;3.77;;;17.50;99.90;;;;;;5083239;28;20206;-53
2022/06/11 00:48:37;;;;;;;5.90;3.90;;;17.50;99.90;;;;;;5083819;28;20255;-52
2022/06/11 00:51:11;;;;;;;6.57;3.90;;;17.50;99.90;;;;;;5082607;28;20309;-53
2022/06/11 00:53:46;;;;;;;5.13;3.47;;;17.30;99.90;;;;;;5084017;28;20586;-53
2022/06/11 00:56:21;;;;;;;6.73;4.07;;;17.30;99.90;;;;;;5082531;28;20285;-53
2022/06/11 00:58:50;;;;;;;5.53;3.73;;;17.30;99.90;;;;;;5086265;28;20197;-53
2022/06/11 01:01:21;;;;;;;4.20;3.70;;;17.40;99.90;;;;;;5079734;28;20611;-53
2022/06/11 01:03:51;;;;;;;5.17;3.73;;;17.40;99.90;;;;;;5078627;28;20282;-52
2022/06/11 01:06:24;;;;;;;4.20;3.80;;;17.30;99.90;;;;;;5082356;28;20217;-53
2022/06/11 01:09:28;;;;;;;6.07;3.70;;;17.30;99.90;;;;;;5080691;28;20229;-52
2022/06/11 01:12:07;;;;;;;5.87;3.93;;;17.20;99.90;;;;;;5083401;28;20205;-52
2022/06/11 01:15:00;;;;;;;6.43;3.80;;;17.10;99.90;;;;;;5079195;28;20294;-53
2022/06/11 01:17:30;;;;;;;4.80;4.10;;;17.10;99.90;;;;;;5080914;28;20205;-52
2022/06/11 01:20:16;;;;;;;5.17;4.20;;;17.10;99.90;;;;;;5083799;28;20681;-53
2022/06/11 01:23:14;;;;;;;6.57;4.47;;;17.10;99.90;;;;;;5084876;28;22212;-53
2022/06/11 01:25:50;;;;;;;6.70;4.27;;;17.10;99.90;;;;;;5079660;28;20638;-53
2022/06/11 01:28:23;;;;;;;9.07;4.50;;;17.10;99.90;;;;;;5083735;28;20540;-53
2022/06/11 01:31:00;;;;;;;5.47;4.50;;;17.00;99.90;;;;;;5084646;28;20218;-51
2022/06/11 01:34:05;;;;;;;4.77;3.83;;;17.10;99.90;;;;;;5085380;28;20210;-52
2022/06/11 01:36:36;;;;;;;6.80;4.57;;;17.10;99.90;;;;;;5075959;28;20194;-52
2022/06/11 01:39:27;;;;;;;7.87;4.87;;;17.10;99.90;;;;;;5077331;28;20203;-52
2022/06/11 01:42:00;;;;;;;7.10;4.47;;;17.00;99.90;;;;;;5078634;28;20209;-52
2022/06/11 01:44:32;;;;;;;8.20;4.00;;;16.90;99.90;;;;;;5083854;28;20209;-52
2022/06/11 01:47:00;;;;;;;5.63;4.33;;;16.90;99.90;;;;;;5077843;28;20370;-52
2022/06/11 01:49:26;;;;;;;5.63;4.07;;;16.90;99.90;;;;;;5081608;28;20215;-52
2022/06/11 01:52:05;;;;;;;7.83;4.70;;;16.90;99.90;;;;;;5076231;28;20201;-52
2022/06/11 01:54:40;;;;;;;5.43;4.70;;;16.80;99.90;;;;;;5081346;28;20261;-52
2022/06/11 01:57:52;;;;;;;7.77;5.50;;;16.80;99.90;;;;;;5075393;28;20198;-52
2022/06/11 02:00:46;;;;;;;5.30;4.23;;;16.80;99.90;;;;;;5079745;28;20201;-52
2022/06/11 02:03:12;;;;;;;7.67;5.07;;;16.90;99.90;;;;;;5078419;28;20939;-53
2022/06/11 02:05:46;;;;;;;11.27;5.50;;;16.80;99.90;;;;;;5083535;28;20266;-52
2022/06/11 02:09:14;;;;;;;5.13;4.23;;;16.90;99.90;;;;;;5082408;28;20196;-52
2022/06/11 02:11:45;;;;;;;5.83;4.30;;;16.80;99.90;;;;;;5017356;28;20211;-52
2022/06/11 02:14:15;;;;;;;6.73;4.40;;;16.80;99.90;;;;;;5083367;28;20650;-53
2022/06/11 02:16:50;;;;;;;4.80;4.37;;;16.80;99.90;;;;;;5079847;28;20218;-53
2022/06/11 02:19:21;;;;;;;6.90;4.40;;;16.90;99.90;;;;;;5081275;28;20187;-52
2022/06/11 02:22:14;;;;;;;6.37;4.70;;;16.80;99.90;;;;;;5082729;28;20275;-52
2022/06/11 02:24:49;;;;;;;6.33;4.00;;;16.80;99.90;;;;;;5084965;28;20243;-52
2022/06/11 02:27:22;;;;;;;6.90;4.33;;;16.70;99.90;;;;;;5075820;28;20213;-53
2022/06/11 02:29:51;;;;;;;4.80;4.40;;;16.70;99.90;;;;;;5085132;28;20314;-52
2022/06/11 02:32:20;;;;;;;4.70;4.00;;;16.60;99.90;;;;;;5086216;28;20198;-52
2022/06/11 02:34:51;;;;;;;6.37;4.00;;;16.50;99.90;;;;;;5078277;28;20803;-53
2022/06/11 02:37:26;;;;;;;5.47;4.23;;;16.50;99.90;;;;;;5078137;28;20283;-51
2022/06/11 02:39:56;;;;;;;4.30;3.90;;;16.50;99.90;;;;;;5071197;28;20232;-52
2022/06/11 02:42:24;;;;;;;5.17;3.90;;;16.60;99.90;;;;;;5075945;28;20290;-52
2022/06/11 02:44:52;;;;;;;5.80;4.27;;;16.50;99.90;;;;;;5075778;28;20250;-53
2022/06/11 02:47:21;;;;;;;6.60;4.27;;;16.50;99.90;;;;;;5074625;28;20247;-53
2022/06/11 02:49:49;;;;;;;8.43;4.50;;;16.40;99.90;;;;;;5073174;28;20321;-53
2022/06/11 02:52:20;;;;;;;6.53;4.33;;;16.40;99.90;;;;;;5075498;28;20208;-53
2022/06/11 02:54:49;;;;;;;4.57;4.17;;;16.50;99.90;;;;;;5077684;28;20254;-53
2022/06/11 02:57:21;;;;;;;6.67;4.07;;;16.40;99.90;;;;;;5078842;28;20201;-52
2022/06/11 02:59:48;;;;;;;6.63;4.00;;;16.30;99.90;;;;;;5078844;28;20251;-53
2022/06/11 03:02:15;;;;;;;7.90;4.30;;;16.30;99.90;;;;;;5076513;28;20289;-52
2022/06/11 03:04:43;;;;;;;7.47;4.00;;;16.30;99.90;;;;;;5077524;28;20213;-52
2022/06/11 03:07:11;;;;;;;8.63;4.57;;;16.40;99.90;;;;;;5081633;28;20229;-52
2022/06/11 03:09:40;;;;;;;8.63;4.17;;;16.30;99.90;;;;;;5081546;28;20204;-52
2022/06/11 03:12:09;;;;;;;6.97;4.10;;;16.40;99.90;;;;;;5080663;28;20195;-52
2022/06/11 03:14:37;;;;;;;5.80;3.83;;;16.40;99.90;;;;;;5081834;28;20214;-52
2022/06/11 03:17:05;;;;;;;4.87;4.13;;;16.30;99.90;;;;;;5085549;28;20309;-52
2022/06/11 03:19:31;;;;;;;6.43;3.57;;;16.30;99.90;;;;;;5082808;28;20210;-51
2022/06/11 03:21:58;;;;;;;7.33;4.47;;;16.30;99.90;;;;;;5079056;28;20205;-53
2022/06/11 03:24:27;;;;;;;7.03;3.93;;;16.30;99.90;;;;;;5083938;28;20202;-52
2022/06/11 03:26:55;;;;;;;4.97;3.43;;;16.30;99.90;;;;;;5065823;28;20209;-52
2022/06/11 03:29:23;;;;;;;7.63;3.57;;;16.20;99.90;;;;;;5081785;28;20256;-51
2022/06/11 03:31:50;;;;;;;6.93;3.80;;;16.20;99.90;;;;;;5079565;28;20211;-52
2022/06/11 03:34:17;;;;;;;5.93;3.80;;;16.00;99.90;;;;;;5084432;28;20202;-52
2022/06/11 03:36:46;;;;;;;4.33;3.07;;;16.00;99.90;;;;;;5080605;28;20222;-52
2022/06/11 03:39:15;;;;;;;5.43;3.27;;;15.90;99.90;;;;;;5077521;28;20191;-52
2022/06/11 03:41:43;;;;;;;4.20;2.70;;;15.90;99.90;;;;;;5074609;28;20315;-52
2022/06/11 03:44:11;;;;;;;3.20;2.67;;;15.90;99.90;;;;;;5075504;28;20272;-53
2022/06/11 03:46:38;;;;;;;8.43;3.17;;;16.00;99.90;;;;;;5077222;28;20209;-52
2022/06/11 03:49:06;;;;;;;9.20;3.03;;;16.00;99.90;;;;;;5080188;28;20249;-52
2022/06/11 03:51:34;;;;;;;6.63;2.83;;;15.90;99.90;;;;;;5077250;28;20697;-51
2022/06/11 03:54:01;;;;;;;3.90;2.30;;;15.80;99.90;;;;;;5077215;28;20776;-53
2022/06/11 03:56:28;;;;;;;5.30;3.17;;;15.80;99.90;;;;;;5078562;28;20237;-53
2022/06/11 03:58:55;;;;;;;4.17;2.73;;;15.90;99.90;;;;;;5078756;28;20654;-53
2022/06/11 04:01:23;;;;;;;5.57;2.50;;;15.90;99.90;;;;;;5078507;28;20305;-53
2022/06/11 04:03:58;;;;;;;5.07;2.63;;;15.90;99.90;;;;;;5077307;28;20279;-52
2022/06/11 04:06:33;;;;;;;6.93;2.93;;;16.00;99.90;;;;;;5079226;28;20236;-52
2022/06/11 04:09:00;;;;;;;4.43;2.30;;;16.10;99.90;;;;;;5081787;28;20232;-53
2022/06/11 04:11:28;;;;;;;5.53;2.10;;;16.10;99.90;;;;;;5072571;28;20217;-52
2022/06/11 04:13:55;;;;;;;5.37;2.50;;;16.10;99.90;;;;;;5073238;28;20204;-52
2022/06/11 04:16:30;;;;;;;7.83;2.03;;;16.00;99.90;;;;;;5075886;28;20638;-52
2022/06/11 04:19:00;;;;;;;4.70;1.77;;;16.00;99.90;;;;;;5077904;28;20228;-52
2022/06/11 04:21:28;;;;;;;3.93;2.03;;;16.00;99.90;;;;;;5077786;28;20665;-52
2022/06/11 04:23:56;;;;;;;5.03;1.97;;;16.00;99.90;;;;;;5076455;28;20562;-51
2022/06/11 04:26:30;;;;;;;7.13;2.20;;;16.00;99.90;;;;;;5075431;28;20299;-52
2022/06/11 04:28:59;;;;;;;4.63;1.60;;;16.00;99.90;;;;;;5077037;28;21115;-49
2022/06/11 04:31:27;;;;;;;5.10;2.00;;;15.90;99.90;;;;;;5077007;28;20209;-52
2022/06/11 04:33:55;;;;;;;4.20;1.73;;;15.80;99.90;;;;;;5074619;28;20199;-52
2022/06/11 04:36:24;;;;;;;7.87;1.67;;;15.90;99.90;;;;;;5084201;28;20203;-52
2022/06/11 04:38:51;;;;;;;2.80;1.73;;;16.00;99.90;;;;;;5085053;28;20233;-52
2022/06/11 04:41:19;;;;;;;9.40;1.73;;;16.00;99.90;;;;;;5084383;28;20202;-50
2022/06/11 04:43:46;;;;;;;5.27;1.53;;;16.00;99.90;;;;;;5084998;28;20254;-52
2022/06/11 04:46:14;;;;;;;4.27;1.70;;;16.10;99.90;;;;;;5077091;28;20562;-52
2022/06/11 04:48:42;;;;;;;6.03;1.97;;;16.10;99.90;;;;;;5084030;28;20212;-52
2022/06/11 04:51:10;;;;;;;4.10;1.63;;;16.10;99.90;;;;;;5083002;28;20249;-52
2022/06/11 04:53:37;;;;;;;6.10;1.60;;;16.30;99.90;;;;;;5085086;28;20229;-52
2022/06/11 04:56:05;;;;;;;5.60;2.03;;;16.20;99.90;;;;;;5070459;28;20226;-52
2022/06/11 04:58:32;;;;;;;5.57;1.80;;;16.20;99.90;;;;;;5054039;28;20210;-52
2022/06/11 05:00:59;;;;;;;7.97;1.60;;;16.20;99.90;;;;;;5078530;28;20202;-52
2022/06/11 05:03:26;;;;;;;5.70;1.40;;;16.10;99.90;;;;;;5076826;28;20906;-52
2022/06/11 05:05:53;;;;;;;7.03;1.60;;;16.30;99.90;;;;;;5083220;28;20225;-52
2022/06/11 05:08:20;;;;;;;5.93;1.67;;;16.30;99.90;;;;;;5078996;28;20719;-52
2022/06/11 05:10:46;;;;;;;7.73;1.90;;;16.30;99.90;;;;;;5083384;28;20243;-52
2022/06/11 05:13:13;;;;;;;5.67;1.70;;;16.50;25.20;;;;;;5085080;28;20682;-52
2022/06/11 05:15:45;;;;;;;5.50;1.57;;;16.60;4.50;;;;;;5087343;28;20197;-52
2022/06/11 05:18:14;;;;;;;7.20;1.83;;;16.60;1.00;;;;;;5081696;28;20194;-52
2022/06/11 05:20:41;;;;;;;6.97;1.50;;;16.80;1.00;;;;;;5078417;28;20665;-53
2022/06/11 05:23:09;;;;;;;4.03;1.63;;;16.90;14.00;;;;;;5074661;28;20685;-52
2022/06/11 05:25:38;;;;;;;7.57;1.80;;;17.10;1.00;;;;;;5081228;28;20198;-52
2022/06/11 05:28:08;;;;;;;5.40;1.37;;;17.00;1.00;;;;;;5079616;28;20203;-51
2022/06/11 05:30:35;;;;;;;6.77;1.70;;;16.80;1.00;;;;;;5076905;28;20303;-53
2022/06/11 05:33:02;;;;;;;5.50;1.93;;;17.00;1.00;;;;;;5081375;28;20206;-52
2022/06/11 05:35:32;;;;;;;8.13;2.00;;;17.00;1.00;;;;;;5078656;28;20199;-53
2022/06/11 05:38:01;;;;;;;4.80;1.60;;;17.20;1.00;;;;;;5078771;28;20550;-52
2022/06/11 05:40:31;;;;;;;9.00;2.00;;;17.00;1.00;;;;;;5078152;28;20293;-50
2022/06/11 05:42:58;;;;;;;8.33;2.10;;;17.00;1.00;;;;;;5078584;28;20696;-52
2022/06/11 05:45:30;;;;;;;10.80;2.83;;;17.20;1.00;;;;;;5079448;28;20312;-52
2022/06/11 05:48:05;;;;;;;6.57;1.90;;;17.30;1.00;;;;;;5080008;28;20205;-53
2022/06/11 05:50:37;;;;;;;9.50;2.03;;;17.20;1.00;;;;;;5079004;28;20329;-52
2022/06/11 05:53:05;;;;;;;8.60;2.20;;;17.20;1.00;;;;;;5079619;28;20198;-52
2022/06/11 05:55:37;;;;;;;6.47;1.90;;;17.30;1.00;;;;;;5079570;28;20201;-52
2022/06/11 05:58:08;;;;;;;11.60;1.93;;;17.10;1.00;;;;;;5077201;28;20227;-53
2022/06/11 06:00:36;;;;;;;8.17;2.10;;;17.20;1.00;;;;;;5072582;28;20255;-52
2022/06/11 06:03:03;;;;;;;9.23;2.37;;;17.20;1.00;;;;;;5077318;28;20288;-52
2022/06/11 06:05:31;;;;;;;8.83;2.30;;;17.20;1.00;;;;;;5079205;28;20584;-51
2022/06/11 06:07:58;;;;;;;13.60;4.10;;;17.30;1.00;;;;;;5079310;28;20240;-52
2022/06/11 06:10:25;;;;;;;11.17;2.57;;;17.30;1.00;;;;;;5077336;28;20307;-52
2022/06/11 06:12:52;;;;;;;17.93;3.07;;;17.30;1.00;;;;;;5076049;28;20206;-52
2022/06/11 06:15:24;;;;;;;8.77;2.40;;;17.30;1.00;;;;;;5080880;28;20256;-52
2022/06/11 06:17:52;;;;;;;11.03;2.80;;;17.30;1.00;;;;;;5083025;28;20315;-52
2022/06/11 06:20:22;;;;;;;9.23;2.63;;;17.30;1.00;;;;;;5079221;28;20765;-52
2022/06/11 06:22:49;;;;;;;16.33;3.17;;;17.20;1.00;;;;;;5080846;28;20756;-52
2022/06/11 06:25:19;;;;;;;12.07;2.37;;;17.30;1.00;;;;;;5080879;28;20616;-52
2022/06/11 06:27:46;;;;;;;11.07;2.57;;;17.40;1.00;;;;;;5077265;28;20199;-53
2022/06/11 06:30:17;;;;;;;10.33;2.50;;;17.30;1.00;;;;;;5075727;28;20201;-52
2022/06/11 06:32:44;;;;;;;8.20;2.03;;;17.40;1.00;;;;;;5060474;28;20218;-53
2022/06/11 06:35:11;;;;;;;15.13;2.87;;;17.40;1.00;;;;;;5078071;28;20199;-53
2022/06/11 06:37:38;;;;;;;11.67;3.20;;;17.50;1.00;;;;;;5089506;28;20206;-53
2022/06/11 06:40:06;;;;;;;12.63;2.70;;;17.60;1.00;;;;;;5085206;28;20206;-53
2022/06/11 06:42:33;;;;;;;14.00;2.80;;;17.80;1.00;;;;;;5086209;28;20301;-52
2022/06/11 06:45:00;;;;;;;12.73;3.10;;;17.70;1.00;;;;;;5085545;28;20199;-52
2022/06/11 06:47:27;;;;;;;16.63;2.70;;;17.50;1.00;;;;;;5082800;28;20733;-53
2022/06/11 06:49:54;;;;;;;11.63;2.60;;;17.40;1.00;;;;;;5083844;28;20290;-51
2022/06/11 06:52:21;;;;;;;10.80;2.70;;;17.50;1.00;;;;;;5086687;28;20710;-52
2022/06/11 06:54:48;;;;;;;11.43;3.10;;;17.70;1.00;;;;;;5082184;28;20234;-53
2022/06/11 06:57:16;;;;;;;12.60;2.37;;;17.80;1.00;;;;;;5083645;28;20297;-51
2022/06/11 06:59:42;;;;;;;10.40;2.80;;;17.80;1.00;;;;;;5079968;28;20664;-53
2022/06/11 07:02:15;;;;;;;13.30;2.87;;;17.70;1.00;;;;;;5079329;28;20199;-53
2022/06/11 07:04:42;;;;;;;13.63;2.87;;;17.70;1.00;;;;;;5081859;28;20215;-53
2022/06/11 07:07:14;;;;;;;10.37;2.60;;;17.80;1.00;;;;;;5083890;28;20255;-53
2022/06/11 07:09:42;;;;;;;13.17;2.67;;;18.10;1.00;;;;;;5080455;28;20698;-54
2022/06/11 07:12:10;;;;;;;11.43;3.27;;;18.10;1.00;;;;;;5084228;28;20266;-54
2022/06/11 07:14:37;;;;;;;11.90;2.70;;;18.20;1.00;;;;;;5078210;28;20546;-54
2022/06/11 07:17:08;;;;;;;13.90;3.50;;;18.40;1.00;;;;;;5059223;28;20661;-53
2022/06/11 07:19:48;;;;;;;11.50;2.43;;;18.60;99.90;;;;;;5080818;28;20226;-54
2022/06/11 07:22:40;;;;;;;10.67;3.23;;;18.90;99.90;;;;;;5082284;28;20663;-53
2022/06/11 07:25:09;;;;;;;10.07;2.90;;;18.90;99.90;;;;;;5086707;28;20216;-53
2022/06/11 07:27:40;;;;;;;13.40;3.10;;;18.70;99.90;;;;;;5083941;28;20203;-53
2022/06/11 07:30:29;;;;;;;11.30;2.80;;;18.70;99.90;;;;;;5086708;28;20208;-53
2022/06/11 07:33:01;;;;;;;14.33;3.00;;;19.00;99.90;;;;;;5082572;28;20309;-53
2022/06/11 07:35:28;;;;;;;15.50;3.50;;;19.30;99.90;;;;;;5083023;28;20229;-53
2022/06/11 07:37:55;;;;;;;15.77;3.57;;;19.50;99.90;;;;;;5085528;28;20230;-53
2022/06/11 07:40:24;;;;;;;10.93;2.60;;;19.60;1.00;;;;;;5077238;28;20630;-53
2022/06/11 07:42:51;;;;;;;15.77;3.70;;;19.80;99.90;;;;;;5073198;28;20647;-53
2022/06/11 07:45:18;;;;;;;13.33;2.70;;;19.70;99.90;;;;;;5084422;28;20724;-52
2022/06/11 07:47:54;;;;;;;15.23;3.10;;;20.20;1.00;;;;;;5081528;28;20226;-52
2022/06/11 07:50:29;;;;;;;11.47;2.70;;;20.20;1.00;;;;;;5079387;28;20290;-53
2022/06/11 07:52:57;;;;;;;15.27;2.90;;;19.80;1.00;;;;;;5081622;28;20220;-53
2022/06/11 07:55:24;;;;;;;13.10;2.60;;;19.70;99.90;;;;;;5078361;28;20203;-52
2022/06/11 07:57:51;;;;;;;12.10;2.40;;;20.20;99.90;;;;;;5083327;28;20293;-51
2022/06/11 08:00:22;;;;;;;12.17;2.80;;;20.20;1.00;;;;;;5077334;28;20347;-53
2022/06/11 08:02:49;;;;;;;12.53;2.97;;;20.50;99.90;;;;;;5075210;28;20198;-53
2022/06/11 08:05:16;;;;;;;8.90;2.57;;;20.80;99.90;;;;;;5073225;28;20209;-53
2022/06/11 08:07:43;;;;;;;11.60;2.73;;;20.70;1.00;;;;;;5071560;28;20573;-52
2022/06/11 08:10:12;;;;;;;15.33;2.23;;;20.50;99.90;;;;;;5071014;28;20647;-53
2022/06/11 08:12:40;;;;;;;13.43;2.30;;;20.40;1.00;;;;;;5077158;28;20713;-52
2022/06/11 08:15:08;;;;;;;9.83;3.00;;;20.30;1.00;;;;;;5076905;28;20700;-52
2022/06/11 08:17:35;;;;;;;12.73;3.40;;;20.60;99.90;;;;;;5072777;28;20238;-52
2022/06/11 08:20:04;;;;;;;9.70;2.10;;;21.00;1.00;;;;;;5072261;28;20195;-53
2022/06/11 08:22:31;;;;;;;14.60;2.60;;;20.90;99.90;;;;;;5076038;28;20222;-53
2022/06/11 08:24:58;;;;;;;8.80;2.80;;;20.50;37.00;;;;;;5068710;28;20721;-52
2022/06/11 08:27:25;;;;;;;8.80;2.20;;;20.90;1.00;;;;;;5068052;28;20286;-53
2022/06/11 08:29:52;;;;;;;12.80;2.50;;;21.20;1.00;;;;;;5075782;28;20199;-51
2022/06/11 08:32:19;;;;;;;14.73;3.03;;;20.90;1.00;;;;;;5066217;28;20744;-52
2022/06/11 08:34:46;;;;;;;12.57;3.37;;;21.30;1.00;;;;;;5057158;28;20679;-52
2022/06/11 08:37:14;;;;;;;10.77;2.13;;;21.20;1.00;;;;;;5071215;28;20794;-52
2022/06/11 08:39:42;;;;;;;10.50;2.07;;;21.20;99.90;;;;;;5074143;28;20574;-52
2022/06/11 08:42:27;;;;;;;10.43;2.13;;;21.30;1.00;;;;;;5076139;28;20214;-53
2022/06/11 08:44:54;;;;;;;9.80;2.10;;;21.20;1.00;;;;;;5076105;28;20582;-52
2022/06/11 08:47:21;;;;;;;6.13;2.17;;;21.10;5.80;;;;;;5077341;28;20230;-53
2022/06/11 08:49:54;;;;;;;8.50;2.20;;;21.40;1.00;;;;;;5057843;28;20653;-52
2022/06/11 08:52:24;;;;;;;9.20;2.03;;;21.20;1.00;;;;;;5076190;28;20325;-53
2022/06/11 08:54:51;;;;;;;7.73;2.30;;;21.30;99.90;;;;;;5076294;28;20230;-52
2022/06/11 08:57:51;;;;;;;8.67;2.40;;;21.40;1.00;;;;;;5068713;28;20624;-52
2022/06/11 09:00:46;;;;;;;8.53;2.37;;;21.10;1.00;;;;;;5079792;28;20608;-53
2022/06/11 09:03:59;;;;;;;10.50;2.17;;;21.20;1.00;;;;;;5078822;28;20647;-52
2022/06/11 09:06:51;;;;;;;12.13;2.40;;;21.70;1.00;;;;;;5088047;28;20207;-53
2022/06/11 09:09:42;;;;;;;12.13;2.87;;;21.10;1.00;;;;;;5078827;28;20314;-53
2022/06/11 09:12:54;;;;;;;8.20;2.77;;;21.10;1.00;;;;;;5083560;28;20265;-54
2022/06/11 09:15:41;;;;;;;9.57;2.37;;;21.20;1.00;;;;;;5075979;28;20665;-54
2022/06/11 09:18:26;;;;;;;8.90;2.17;;;21.00;1.00;;;;;;5079797;28;20205;-54
2022/06/11 09:21:35;;;;;;;10.80;2.30;;;21.60;99.90;;;;;;5082183;28;20223;-54
2022/06/11 09:24:26;;;;;;;10.10;2.50;;;22.20;99.90;;;;;;5076111;28;20226;-53
2022/06/11 09:27:04;;;;;;;13.03;2.17;;;22.00;99.90;;;;;;5076267;28;20267;-53
2022/06/11 09:30:06;;;;;;;8.33;1.97;;;22.20;99.90;;;;;;5078489;28;20221;-53
2022/06/11 09:32:58;;;;;;;11.30;2.40;;;22.60;99.90;;;;;;5076215;28;20300;-53
2022/06/11 09:35:41;;;;;;;8.13;2.20;;;22.90;1.00;;;;;;5082839;28;20270;-54
2022/06/11 09:38:38;;;;;;;10.00;2.50;;;22.40;99.90;;;;;;5070492;28;20266;-53
2022/06/11 09:41:08;;;;;;;11.20;2.20;;;22.10;1.00;;;;;;5078810;28;20716;-53
2022/06/11 09:43:50;;;;;;;8.83;2.40;;;22.20;1.00;;;;;;5084092;28;20260;-52
2022/06/11 09:46:37;;;;;;;9.37;2.13;;;22.00;1.00;;;;;;5079976;28;20572;-53
2022/06/11 09:49:28;;;;;;;10.03;2.23;;;22.40;99.90;;;;;;5082583;28;20203;-54
2022/06/11 09:52:07;;;;;;;9.70;2.27;;;22.60;99.90;;;;;;5081313;28;20294;-53
2022/06/11 09:54:58;;;;;;;10.57;2.83;;;22.60;99.90;;;;;;5078704;28;20266;-54
2022/06/11 09:57:34;;;;;;;12.20;2.57;;;22.70;1.00;;;;;;5084860;28;20767;-53
2022/06/11 10:00:23;;;;;;;11.87;2.50;;;22.40;1.00;;;;;;5082833;28;20191;-53
2022/06/11 10:05:49;;;;;;;8.67;1.73;;;22.70;1.00;;;;;;5077802;28;20205;-53
2022/06/11 10:08:44;;;;;;;11.50;2.53;;;22.30;1.00;;;;;;5071225;28;20655;-54
2022/06/11 10:11:33;;;;;;;10.07;3.03;;;22.10;99.90;;;;;;5071089;28;20533;-54
2022/06/11 10:14:29;;;;;;;8.50;2.33;;;21.90;99.90;;;;;;5074000;28;20294;-53
2022/06/11 10:17:21;;;;;;;12.10;2.90;;;21.80;1.00;;;;;;5075679;28;20650;-53
2022/06/11 10:20:01;;;;;;;12.30;2.40;;;22.30;1.00;;;;;;5080248;28;20620;-54
2022/06/11 10:22:48;;;;;;;10.63;2.40;;;22.70;99.90;;;;;;5083194;28;20219;-53
2022/06/11 10:25:20;;;;;;;9.73;1.87;;;22.20;99.90;;;;;;5066290;28;20707;-53
2022/06/11 10:28:00;;;;;;;7.27;2.20;;;22.60;87.80;;;;;;5071652;28;20226;-52
2022/06/11 10:30:34;;;;;;;10.30;2.40;;;22.70;1.00;;;;;;5073212;28;20205;-53
2022/06/11 10:33:06;;;;;;;8.47;2.20;;;22.60;99.90;;;;;;5076606;28;21057;-53
2022/06/11 10:35:45;;;;;;;11.37;2.40;;;23.10;99.90;;;;;;5078663;28;20725;-53
2022/06/11 10:38:46;;;;;;;10.17;2.63;;;22.60;99.90;;;;;;5077411;28;20223;-52
2022/06/11 10:41:34;;;;;;;10.90;2.03;;;22.70;1.00;;;;;;5086605;28;20347;-53
2022/06/11 10:44:10;;;;;;;14.23;2.63;;;22.80;99.90;;;;;;5089804;28;20261;-53
2022/06/11 10:46:39;;;;;;;7.43;2.30;;;22.70;99.90;;;;;;5075625;28;20297;-53
2022/06/11 10:49:14;;;;;;;10.57;2.37;;;23.00;53.70;;;;;;5061564;28;20218;-54
2022/06/11 10:51:49;;;;;;;7.07;2.10;;;23.20;99.90;;;;;;5075709;28;20352;-53
2022/06/11 10:54:21;;;;;;;9.93;2.50;;;23.50;99.90;;;;;;5071638;28;20276;-53
2022/06/11 10:57:00;;;;;;;9.37;2.07;;;23.20;6.10;;;;;;5088786;28;20718;-53
2022/06/11 10:59:39;;;;;;;6.90;2.20;;;23.10;1.00;;;;;;5089124;28;20357;-53
2022/06/11 11:02:29;;;;;;;7.47;2.30;;;23.30;94.80;;;;;;5087983;28;20205;-53
2022/06/11 11:05:00;;;;;;;10.80;2.63;;;23.00;99.90;;;;;;5090123;28;20714;-53
2022/06/11 11:07:52;;;;;;;8.77;2.20;;;23.50;99.90;;;;;;5086085;28;20234;-53
2022/06/11 11:10:37;;;;;;;6.67;2.20;;;23.20;1.00;;;;;;5089672;28;20216;-54
2022/06/11 11:13:13;;;;;;;11.13;2.53;;;23.00;47.90;;;;;;5086583;28;20243;-53
2022/06/11 11:15:45;;;;;;;8.27;2.40;;;23.10;99.90;;;;;;5082347;28;20236;-53
2022/06/11 11:18:16;;;;;;;7.70;2.17;;;23.60;1.00;;;;;;5088816;28;20250;-53
2022/06/11 11:20:46;;;;;;;6.30;2.33;;;23.60;1.00;;;;;;5075591;28;20292;-53
2022/06/11 11:23:22;;;;;;;7.20;2.30;;;23.60;1.00;;;;;;5080213;28;20246;-53
2022/06/11 11:25:51;;;;;;;8.30;2.37;;;23.60;99.90;;;;;;5073421;28;20726;-53
2022/06/11 11:28:49;;;;;;;10.33;2.57;;;24.20;1.00;;;;;;5078757;28;20200;-53
2022/06/11 11:31:27;;;;;;;8.83;2.47;;;24.10;30.70;;;;;;5067878;28;20301;-54
2022/06/11 11:34:20;;;;;;;11.20;2.40;;;24.20;1.00;;;;;;5086738;28;20280;-54
2022/06/11 11:36:48;;;;;;;8.47;2.43;;;24.10;1.00;;;;;;5087325;28;20218;-53
2022/06/11 11:39:15;;;;;;;6.57;1.67;;;24.00;1.00;;;;;;5072840;28;20203;-54
2022/06/11 11:41:50;;;;;;;7.03;1.57;;;24.10;1.00;;;;;;5080382;28;20233;-55
2022/06/11 11:44:19;;;;;;;7.37;2.07;;;24.00;1.00;;;;;;5082963;28;20243;-53
2022/06/11 11:46:52;;;;;;;6.90;1.73;;;24.30;99.90;;;;;;5087125;28;20285;-53
2022/06/11 11:49:23;;;;;;;6.40;2.03;;;24.60;99.90;;;;;;5085964;28;20206;-53
2022/06/11 11:51:51;;;;;;;7.43;1.77;;;24.70;99.90;;;;;;5080717;28;20205;-54
2022/06/11 11:54:22;;;;;;;9.73;2.13;;;24.90;99.90;;;;;;5074879;28;21741;-54
2022/06/11 11:56:52;;;;;;;11.63;2.70;;;25.00;1.00;;;;;;5077735;28;20212;-54
2022/06/11 11:59:29;;;;;;;11.40;2.23;;;24.30;99.90;;;;;;5078236;28;20256;-53
2022/06/11 12:02:10;;;;;;;11.67;2.77;;;24.50;1.00;;;;;;5077398;28;20224;-53
2022/06/11 12:04:51;;;;;;;10.17;2.20;;;24.20;1.00;;;;;;5070058;28;20220;-53
2022/06/11 12:07:33;;;;;;;13.27;2.83;;;24.90;1.00;;;;;;5076840;28;20480;-54
2022/06/11 12:10:11;;;;;;;6.60;2.03;;;24.80;1.00;;;;;;5087696;28;20642;-55
2022/06/11 12:12:41;;;;;;;5.37;1.70;;;24.80;1.00;;;;;;5079598;28;20261;-54
2022/06/11 12:15:29;;;;;;;9.87;2.50;;;24.40;90.40;;;;;;5090952;28;20237;-54
2022/06/11 12:18:14;;;;;;;5.73;2.23;;;24.60;1.00;;;;;;5083606;28;20192;-54
2022/06/11 12:20:51;;;;;;;7.53;2.17;;;25.60;1.00;;;;;;5087223;28;20239;-55
2022/06/11 12:23:23;;;;;;;8.43;2.60;;;25.30;1.00;;;;;;5090696;28;20214;-54
2022/06/11 12:25:55;;;;;;;10.60;2.23;;;24.90;1.00;;;;;;5087731;28;20313;-54
2022/06/11 12:28:30;;;;;;;8.90;2.60;;;25.20;99.90;;;;;;5085340;28;20233;-55
2022/06/11 12:30:56;;;;;;;10.07;1.63;;;24.70;99.90;;;;;;5062716;28;20215;-55
2022/06/11 12:33:24;;;;;;;7.33;2.30;;;24.80;99.90;;;;;;5082352;28;20217;-55
2022/06/11 12:36:00;;;;;;;8.53;2.60;;;25.00;1.00;;;;;;5076483;28;20199;-54
2022/06/11 12:38:34;;;;;;;8.60;2.43;;;24.70;1.00;;;;;;5082753;28;20244;-54
2022/06/11 12:41:20;;;;;;;7.10;2.00;;;24.40;99.90;;;;;;5070176;28;20197;-56
2022/06/11 12:43:51;;;;;;;12.40;2.87;;;24.50;99.90;;;;;;5083105;28;20287;-55
2022/06/11 12:46:32;;;;;;;9.90;2.40;;;24.40;1.00;;;;;;5084059;28;20318;-54
2022/06/11 12:49:18;;;;;;;7.97;2.43;;;24.00;1.00;;;;;;5083650;28;20291;-54
2022/06/11 12:52:22;;;;;;;6.43;1.90;;;24.00;1.00;;;;;;5081679;28;20266;-54
2022/06/11 12:55:02;;;;;;;5.50;2.17;;;23.90;99.90;;;;;;5084049;28;20275;-54
2022/06/11 12:57:48;;;;;;;8.80;2.37;;;24.50;67.20;;;;;;5078913;28;20260;-55
2022/06/11 13:00:37;;;;;;;9.23;2.60;;;24.80;99.90;;;;;;5081336;28;20198;-55
2022/06/11 13:03:28;;;;;;;8.70;2.27;;;24.40;99.90;;;;;;5084623;28;20241;-54
2022/06/11 13:06:16;;;;;;;7.10;2.00;;;24.00;1.00;;;;;;5075733;28;20217;-55
2022/06/11 13:09:05;;;;;;;7.40;2.60;;;24.70;99.90;;;;;;5080359;28;20198;-54
2022/06/11 13:11:58;;;;;;;9.37;2.37;;;24.60;99.90;;;;;;5081993;28;20195;-55
2022/06/11 13:14:59;;;;;;;14.27;2.90;;;25.30;99.90;;;;;;5087897;28;20272;-55
2022/06/11 13:17:48;;;;;;;6.73;2.47;;;24.80;99.90;;;;;;5061168;28;20205;-54
2022/06/11 13:20:29;;;;;;;13.00;2.40;;;24.40;99.90;;;;;;5080006;28;20275;-54
2022/06/11 13:23:24;;;;;;;6.40;2.10;;;24.00;1.00;;;;;;5082745;28;20713;-55
2022/06/11 13:25:57;;;;;;;7.07;2.17;;;24.00;67.00;;;;;;5080055;28;20231;-55
2022/06/11 13:28:42;;;;;;;7.33;2.37;;;23.80;99.90;;;;;;5079433;28;20275;-54